Time;durP1;ratioP1;P1;durP2;ratioP2;P2;SDS_P1;SDS_P2;PMS_P1;PMS_P2;Temp;Humidity;BMP_temperature;BMP_pressure;BME280_temperature;BME280_humidity;BME280_pressure;Samples;Min_cycle;Max_cycle;Signal;HPM_P1;HPM_P2
2021/11/20 00:01:26;;;;;;;;;34.75;33.50;;;;;;;;5084721;28;9919;-82
2021/11/20 00:03:55;;;;;;;;;37.75;35.00;;;;;;;;5088120;28;9936;-83
2021/11/20 00:06:31;;;;;;;;;29.50;28.00;;;;;;;;5098176;28;9788;-84
2021/11/20 00:08:59;;;;;;;;;29.50;27.50;;;;;;;;5089246;28;10214;-83
2021/11/20 00:11:29;;;;;;;;;24.75;24.75;;;;;;;;5085065;28;9539;-83
2021/11/20 00:13:57;;;;;;;;;25.00;21.67;;;;;;;;5083991;28;9577;-82
2021/11/20 00:16:26;;;;;;;;;19.33;19.33;;;;;;;;5094538;28;9331;-83
2021/11/20 00:18:55;;;;;;;;;23.75;19.75;;;;;;;;5091199;28;9465;-84
2021/11/20 00:21:26;;;;;;;;;22.25;19.25;;;;;;;;5084077;28;9482;-83
2021/11/20 00:23:58;;;;;;;;;20.00;16.33;;;;;;;;5085781;28;9588;-84
2021/11/20 00:26:30;;;;;;;;;18.00;13.67;;;;;;;;5091054;28;9270;-83
2021/11/20 00:31:51;;;;;;;;;13.67;12.33;;;;;;;;5056173;28;9846;-83
2021/11/20 00:34:23;;;;;;;;;13.67;13.67;;;;;;;;5091464;28;9391;-83
2021/11/20 00:36:51;;;;;;;;;14.67;13.33;;;;;;;;5087884;28;9327;-81
2021/11/20 00:39:21;;;;;;;;;9.33;9.33;;;;;;;;5077845;28;9426;-83
2021/11/20 00:41:49;;;;;;;;;13.67;10.00;;;;;;;;5084790;28;9365;-83
2021/11/20 00:44:16;;;;;;;;;9.33;9.33;;;;;;;;5116091;27;9085;-82
2021/11/20 00:46:45;;;;;;;;;13.33;11.33;;;;;;;;5084026;28;9303;-83
2021/11/20 00:49:13;;;;;;;;;10.00;8.33;;;;;;;;5080530;28;10130;-83
2021/11/20 00:51:42;;;;;;;;;6.33;6.33;;;;;;;;5084800;28;10315;-83
2021/11/20 00:54:10;;;;;;;;;9.67;9.67;;;;;;;;5084158;28;9329;-82
2021/11/20 00:56:37;;;;;;;;;9.00;7.00;;;;;;;;5086621;28;9250;-84
2021/11/20 00:59:04;;;;;;;;;8.33;8.33;;;;;;;;5091909;28;9766;-83
2021/11/20 01:01:34;;;;;;;;;6.33;6.33;;;;;;;;5081704;28;9123;-83
2021/11/20 01:04:02;;;;;;;;;7.00;6.00;;;;;;;;5087518;28;9028;-83
2021/11/20 01:06:30;;;;;;;;;6.00;6.00;;;;;;;;5091695;28;9026;-83
2021/11/20 01:08:59;;;;;;;;;7.33;3.33;;;;;;;;5079945;28;9200;-82
2021/11/20 01:11:29;;;;;;;;;0.75;0.50;;;;;;;;5093503;28;9159;-82
2021/11/20 01:13:59;;;;;;;;;4.00;2.33;;;;;;;;5095609;28;8865;-82
2021/11/20 01:16:28;;;;;;;;;4.00;4.00;;;;;;;;5088428;28;8948;-82
2021/11/20 01:18:57;;;;;;;;;2.00;2.00;;;;;;;;5086528;28;9980;-83
2021/11/20 01:21:25;;;;;;;;;2.00;2.00;;;;;;;;5081463;28;8934;-82
2021/11/20 01:23:52;;;;;;;;;1.00;1.00;;;;;;;;5091523;28;8852;-84
2021/11/20 01:26:23;;;;;;;;;1.00;1.00;;;;;;;;5098532;28;8861;-83
2021/11/20 01:28:53;;;;;;;;;2.00;2.00;;;;;;;;5088379;28;9668;-83
2021/11/20 01:31:23;;;;;;;;;3.00;3.00;;;;;;;;5097622;28;9130;-84
2021/11/20 01:33:51;;;;;;;;;2.67;2.67;;;;;;;;5090024;28;9226;-82
2021/11/20 01:36:20;;;;;;;;;3.00;3.00;;;;;;;;5083385;28;8968;-83
2021/11/20 01:38:49;;;;;;;;;1.00;1.00;;;;;;;;5091540;28;9207;-83
2021/11/20 01:41:17;;;;;;;;;2.67;1.67;;;;;;;;5097809;28;9220;-82
2021/11/20 01:43:50;;;;;;;;;1.67;1.67;;;;;;;;5089724;28;9119;-82
2021/11/20 01:46:21;;;;;;;;;2.00;2.00;;;;;;;;5086360;28;9021;-82
2021/11/20 01:49:04;;;;;;;;;2.33;1.00;;;;;;;;5081527;28;9316;-82
2021/11/20 01:51:34;;;;;;;;;1.00;1.00;;;;;;;;5089521;28;9552;-80
2021/11/20 01:54:09;;;;;;;;;1.00;1.00;;;;;;;;5075654;28;9258;-80
2021/11/20 01:56:42;;;;;;;;;4.00;4.00;;;;;;;;5080426;28;9135;-81
2021/11/20 01:59:17;;;;;;;;;2.00;2.00;;;;;;;;5098144;28;9192;-81
2021/11/20 02:01:48;;;;;;;;;1.00;1.00;;;;;;;;5091863;28;9215;-80
2021/11/20 02:04:21;;;;;;;;;2.00;2.00;;;;;;;;5094719;28;9092;-80
2021/11/20 02:06:54;;;;;;;;;3.00;3.00;;;;;;;;5089385;28;9266;-80
2021/11/20 02:09:26;;;;;;;;;2.67;2.67;;;;;;;;5087232;28;9358;-80
2021/11/20 02:11:58;;;;;;;;;2.00;2.00;;;;;;;;5087570;28;9186;-81
2021/11/20 02:14:29;;;;;;;;;6.00;6.00;;;;;;;;5085877;28;9252;-80
2021/11/20 02:17:02;;;;;;;;;8.75;8.75;;;;;;;;5081557;28;9422;-80
2021/11/20 02:19:33;;;;;;;;;11.00;6.67;;;;;;;;5077438;28;9486;-80
2021/11/20 02:22:04;;;;;;;;;15.00;11.75;;;;;;;;5081313;28;9327;-80
2021/11/20 02:24:31;;;;;;;;;12.00;9.00;;;;;;;;5084176;28;9545;-81
2021/11/20 02:27:00;;;;;;;;;13.75;12.00;;;;;;;;5084014;28;9538;-80
2021/11/20 02:29:27;;;;;;;;;14.75;13.00;;;;;;;;5085068;28;9679;-80
2021/11/20 02:31:59;;;;;;;;;18.00;16.00;;;;;;;;5089012;27;9676;-80
2021/11/20 02:34:28;;;;;;;;;12.25;12.00;;;;;;;;5084799;28;9912;-80
2021/11/20 02:36:56;;;;;;;;;11.50;11.50;;;;;;;;5080111;28;9707;-81
2021/11/20 02:39:26;;;;;;;;;19.50;17.50;;;;;;;;5082957;28;10469;-81
2021/11/20 02:41:55;;;;;;;;;12.25;12.25;;;;;;;;5091222;28;10364;-82
2021/11/20 02:44:25;;;;;;;;;17.75;13.50;;;;;;;;5083527;28;10288;-81
2021/11/20 02:46:59;;;;;;;;;19.75;18.00;;;;;;;;5086464;28;9620;-81
2021/11/20 02:49:26;;;;;;;;;15.00;14.00;;;;;;;;5079068;28;9804;-80
2021/11/20 02:51:56;;;;;;;;;15.75;15.50;;;;;;;;5082992;28;9768;-81
2021/11/20 02:54:26;;;;;;;;;19.00;16.50;;;;;;;;5082060;28;9785;-81
2021/11/20 02:56:58;;;;;;;;;17.75;16.50;;;;;;;;5090255;28;9862;-80
2021/11/20 02:59:27;;;;;;;;;18.75;17.75;;;;;;;;5085432;28;9974;-80
2021/11/20 03:01:56;;;;;;;;;21.00;20.25;;;;;;;;5086598;27;10046;-80
2021/11/20 03:04:25;;;;;;;;;17.75;14.00;;;;;;;;5092875;28;9822;-79
2021/11/20 03:06:55;;;;;;;;;14.00;13.25;;;;;;;;5092424;28;9955;-79
2021/11/20 03:09:25;;;;;;;;;17.25;13.00;;;;;;;;5092344;28;9857;-79
2021/11/20 03:11:53;;;;;;;;;15.75;14.50;;;;;;;;5089867;28;9794;-81
2021/11/20 03:14:21;;;;;;;;;13.25;11.75;;;;;;;;5091027;28;9815;-79
2021/11/20 03:16:50;;;;;;;;;11.00;9.25;;;;;;;;5085434;28;9786;-80
2021/11/20 03:19:20;;;;;;;;;9.50;5.50;;;;;;;;5086327;28;9853;-80
2021/11/20 03:21:50;;;;;;;;;16.25;13.75;;;;;;;;5087949;28;9980;-81
2021/11/20 03:24:19;;;;;;;;;14.75;11.50;;;;;;;;5088758;28;9941;-81
2021/11/20 03:26:47;;;;;;;;;12.25;12.25;;;;;;;;5081210;28;10129;-81
2021/11/20 03:29:15;;;;;;;;;15.50;14.50;;;;;;;;5095335;28;10115;-81
2021/11/20 03:31:43;;;;;;;;;23.25;18.00;;;;;;;;5094202;28;10209;-82
2021/11/20 03:34:11;;;;;;;;;16.50;14.75;;;;;;;;5089091;28;10088;-81
2021/11/20 03:36:40;;;;;;;;;13.75;13.75;;;;;;;;5081388;28;10122;-81
2021/11/20 03:39:09;;;;;;;;;12.75;12.75;;;;;;;;5089438;28;10012;-82
2021/11/20 03:41:36;;;;;;;;;20.50;18.25;;;;;;;;5095731;28;10945;-80
2021/11/20 03:44:04;;;;;;;;;22.75;18.75;;;;;;;;5070671;28;10059;-79
2021/11/20 03:46:32;;;;;;;;;20.50;16.50;;;;;;;;5092765;28;9962;-81
2021/11/20 03:49:00;;;;;;;;;18.00;16.00;;;;;;;;5093784;28;10196;-81
2021/11/20 03:51:27;;;;;;;;;22.75;15.50;;;;;;;;5090187;28;10063;-80
2021/11/20 03:53:56;;;;;;;;;17.00;16.00;;;;;;;;5092444;28;10090;-81
2021/11/20 03:56:24;;;;;;;;;21.75;19.00;;;;;;;;5084556;28;10739;-81
2021/11/20 03:58:52;;;;;;;;;17.50;17.50;;;;;;;;5087932;28;9967;-81
2021/11/20 04:01:22;;;;;;;;;17.00;17.00;;;;;;;;5084101;28;9997;-82
2021/11/20 04:03:50;;;;;;;;;22.50;17.25;;;;;;;;5093172;28;9945;-81
2021/11/20 04:06:18;;;;;;;;;16.75;16.75;;;;;;;;5094569;28;10069;-81
2021/11/20 04:08:48;;;;;;;;;17.00;15.75;;;;;;;;5085725;28;10038;-81
2021/11/20 04:11:20;;;;;;;;;20.00;15.50;;;;;;;;5084943;28;10071;-80
2021/11/20 04:13:49;;;;;;;;;14.25;13.50;;;;;;;;5094183;28;9990;-81
2021/11/20 04:16:17;;;;;;;;;18.50;17.00;;;;;;;;5086192;28;10004;-81
2021/11/20 04:18:45;;;;;;;;;22.00;18.00;;;;;;;;5086570;28;10059;-81
2021/11/20 04:21:13;;;;;;;;;19.25;17.75;;;;;;;;5096246;28;9904;-81
2021/11/20 04:23:41;;;;;;;;;16.00;13.25;;;;;;;;5086468;28;10040;-81
2021/11/20 04:26:09;;;;;;;;;17.75;17.75;;;;;;;;5085972;28;9810;-81
2021/11/20 04:28:38;;;;;;;;;14.25;13.25;;;;;;;;5096428;28;10076;-82
2021/11/20 04:31:05;;;;;;;;;12.25;12.00;;;;;;;;5090207;27;9890;-81
2021/11/20 04:33:33;;;;;;;;;15.00;15.00;;;;;;;;5085260;28;9986;-82
2021/11/20 04:36:00;;;;;;;;;14.75;14.75;;;;;;;;5085729;28;9941;-81
2021/11/20 04:38:28;;;;;;;;;16.25;14.00;;;;;;;;5084692;28;9950;-81
2021/11/20 04:40:55;;;;;;;;;11.50;11.50;;;;;;;;5079984;28;9876;-82
2021/11/20 04:43:23;;;;;;;;;9.75;8.00;;;;;;;;5090910;28;10064;-82
2021/11/20 04:45:53;;;;;;;;;8.50;8.50;;;;;;;;5088168;28;9877;-81
2021/11/20 04:48:20;;;;;;;;;7.75;6.75;;;;;;;;5093844;28;9776;-83
2021/11/20 04:50:48;;;;;;;;;6.00;6.00;;;;;;;;5089397;28;9860;-82
2021/11/20 04:53:16;;;;;;;;;7.50;6.50;;;;;;;;5089791;28;9950;-83
2021/11/20 04:55:44;;;;;;;;;6.25;5.00;;;;;;;;5087883;28;9992;-82
2021/11/20 04:58:11;;;;;;;;;7.00;7.00;;;;;;;;5086823;28;9899;-82
2021/11/20 05:00:43;;;;;;;;;7.00;4.75;;;;;;;;5079156;28;9868;-80
2021/11/20 05:03:11;;;;;;;;;1.00;1.00;;;;;;;;5085499;28;9743;-81
2021/11/20 05:05:41;;;;;;;;;5.75;5.75;;;;;;;;5089022;28;9866;-81
2021/11/20 05:08:09;;;;;;;;;7.75;7.00;;;;;;;;5088133;28;9705;-81
2021/11/20 05:10:37;;;;;;;;;6.00;6.00;;;;;;;;5087540;28;9758;-81
2021/11/20 05:13:05;;;;;;;;;4.50;4.50;;;;;;;;5089962;28;9745;-81
2021/11/20 05:15:35;;;;;;;;;3.00;3.00;;;;;;;;5091904;28;9683;-80
2021/11/20 05:18:03;;;;;;;;;5.00;5.00;;;;;;;;5090949;28;9671;-80
2021/11/20 05:20:32;;;;;;;;;7.25;7.25;;;;;;;;5080969;28;9896;-81
2021/11/20 05:23:00;;;;;;;;;1.75;1.75;;;;;;;;5091380;28;10690;-80
2021/11/20 05:25:27;;;;;;;;;3.00;3.00;;;;;;;;5086827;28;9648;-81
2021/11/20 05:27:55;;;;;;;;;10.00;6.25;;;;;;;;5081664;28;9881;-79
2021/11/20 05:30:27;;;;;;;;;5.50;3.75;;;;;;;;5083383;28;9939;-81
2021/11/20 05:32:56;;;;;;;;;4.00;4.00;;;;;;;;5086883;28;9792;-81
2021/11/20 05:35:24;;;;;;;;;5.25;5.25;;;;;;;;5083779;28;9930;-81
2021/11/20 05:37:54;;;;;;;;;5.75;5.75;;;;;;;;5097626;28;9796;-81
2021/11/20 05:40:22;;;;;;;;;6.00;4.50;;;;;;;;5080769;28;9728;-81
2021/11/20 05:42:52;;;;;;;;;7.00;7.00;;;;;;;;5087842;28;10797;-80
2021/11/20 05:45:21;;;;;;;;;7.00;7.00;;;;;;;;5096657;28;10117;-81
2021/11/20 05:47:49;;;;;;;;;6.25;6.25;;;;;;;;5083175;28;10017;-80
2021/11/20 05:50:19;;;;;;;;;6.50;6.50;;;;;;;;5084427;28;10036;-80
2021/11/20 05:52:47;;;;;;;;;5.75;5.75;;;;;;;;5083793;28;10106;-81
2021/11/20 05:55:17;;;;;;;;;7.50;5.00;;;;;;;;5084210;28;10063;-82
2021/11/20 05:57:45;;;;;;;;;7.50;6.00;;;;;;;;5095927;28;10002;-80
2021/11/20 06:00:16;;;;;;;;;10.75;7.75;;;;;;;;5085896;28;10058;-82
2021/11/20 06:02:43;;;;;;;;;6.25;6.25;;;;;;;;5088888;28;10173;-81
2021/11/20 06:05:11;;;;;;;;;7.00;7.00;;;;;;;;5083868;28;10033;-79
2021/11/20 06:07:38;;;;;;;;;7.00;5.75;;;;;;;;5090067;28;10148;-81
2021/11/20 06:10:07;;;;;;;;;7.00;7.00;;;;;;;;5088657;28;10163;-79
2021/11/20 06:12:35;;;;;;;;;7.00;7.00;;;;;;;;5083359;28;10160;-81
2021/11/20 06:15:04;;;;;;;;;7.00;5.50;;;;;;;;5084824;28;10021;-81
2021/11/20 06:17:31;;;;;;;;;3.75;3.00;;;;;;;;5084767;28;10047;-81
2021/11/20 06:19:58;;;;;;;;;6.00;6.00;;;;;;;;5083069;28;10121;-81
2021/11/20 06:22:27;;;;;;;;;5.50;5.50;;;;;;;;5082465;28;9963;-79
2021/11/20 06:24:57;;;;;;;;;7.75;7.75;;;;;;;;5083156;28;10095;-79
2021/11/20 06:27:24;;;;;;;;;12.25;10.50;;;;;;;;5082021;28;9942;-80
2021/11/20 06:29:53;;;;;;;;;3.50;3.50;;;;;;;;5092937;28;10045;-81
2021/11/20 06:32:20;;;;;;;;;5.25;5.25;;;;;;;;5092564;27;9923;-80
2021/11/20 06:34:47;;;;;;;;;5.00;5.00;;;;;;;;5092488;28;9968;-82
2021/11/20 06:37:15;;;;;;;;;5.75;5.75;;;;;;;;5087130;28;10049;-80
2021/11/20 06:39:42;;;;;;;;;6.00;6.00;;;;;;;;5083074;28;9936;-79
2021/11/20 06:42:09;;;;;;;;;6.50;6.50;;;;;;;;5083695;28;9830;-80
2021/11/20 06:44:37;;;;;;;;;5.25;5.25;;;;;;;;5084193;28;9932;-79
2021/11/20 06:47:10;;;;;;;;;5.00;5.00;;;;;;;;5086503;28;9800;-79
2021/11/20 06:49:37;;;;;;;;;7.00;7.00;;;;;;;;5088557;28;9923;-88
2021/11/20 06:52:05;;;;;;;;;6.50;4.25;;;;;;;;5117146;27;9755;-84
2021/11/20 06:54:32;;;;;;;;;6.75;6.75;;;;;;;;5091037;28;9804;-82
2021/11/20 06:57:05;;;;;;;;;5.00;5.00;;;;;;;;5086085;28;10550;-87
2021/11/20 07:02:23;;;;;;;;;4.25;4.25;;;;;;;;5059474;28;9693;-83
2021/11/20 07:04:50;;;;;;;;;7.00;5.50;;;;;;;;5086639;28;9747;-86
2021/11/20 07:07:19;;;;;;;;;7.00;6.00;;;;;;;;5084977;28;9837;-83
2021/11/20 07:09:49;;;;;;;;;6.75;6.50;;;;;;;;5085310;28;9913;-83
2021/11/20 07:12:17;;;;;;;;;6.75;6.75;;;;;;;;5084764;28;9901;-76
2021/11/20 07:14:44;;;;;;;;;11.00;11.00;;;;;;;;5085846;28;9940;-80
2021/11/20 07:17:13;;;;;;;;;11.25;9.75;;;;;;;;5085394;28;10762;-82
2021/11/20 07:19:42;;;;;;;;;9.25;8.00;;;;;;;;5090302;28;10044;-81
2021/11/20 07:22:09;;;;;;;;;6.50;5.50;;;;;;;;5085283;28;9855;-81
2021/11/20 07:24:36;;;;;;;;;10.00;10.00;;;;;;;;5086035;28;9957;-82
2021/11/20 07:27:04;;;;;;;;;8.50;7.25;;;;;;;;5086455;28;10032;-81
2021/11/20 07:29:32;;;;;;;;;6.50;5.25;;;;;;;;5086327;28;10105;-83
2021/11/20 07:31:59;;;;;;;;;6.00;6.00;;;;;;;;5085629;28;9745;-80
2021/11/20 07:34:27;;;;;;;;;4.25;4.25;;;;;;;;5087264;28;9855;-76
2021/11/20 07:36:58;;;;;;;;;3.00;3.00;;;;;;;;5085322;28;9794;-78
2021/11/20 07:39:25;;;;;;;;;5.75;5.25;;;;;;;;5082025;28;9774;-79
2021/11/20 07:41:52;;;;;;;;;5.50;5.50;;;;;;;;5085940;28;9938;-78
2021/11/20 07:44:20;;;;;;;;;5.00;5.00;;;;;;;;5086509;28;9805;-78
2021/11/20 07:46:47;;;;;;;;;6.75;5.00;;;;;;;;5087429;28;9788;-77
2021/11/20 07:49:15;;;;;;;;;8.75;6.00;;;;;;;;5085678;28;9972;-82
2021/11/20 07:51:43;;;;;;;;;6.50;6.50;;;;;;;;5087772;28;9768;-81
2021/11/20 07:54:12;;;;;;;;;7.00;7.00;;;;;;;;5086311;28;10624;-82
2021/11/20 07:56:42;;;;;;;;;11.50;9.50;;;;;;;;5088404;28;9969;-82
2021/11/20 07:59:10;;;;;;;;;37.50;34.50;;;;;;;;5083106;28;9959;-78
2021/11/20 08:01:37;;;;;;;;;54.00;41.75;;;;;;;;5083955;28;10455;-80
2021/11/20 08:04:05;;;;;;;;;94.75;73.00;;;;;;;;5085773;28;10946;-82
2021/11/20 08:06:32;;;;;;;;;14.25;11.75;;;;;;;;5082552;28;11597;-81
2021/11/20 08:09:03;;;;;;;;;6.50;6.50;;;;;;;;5083320;28;10026;-86
2021/11/20 08:11:34;;;;;;;;;3.00;3.00;;;;;;;;5083614;28;9861;-83
2021/11/20 08:14:03;;;;;;;;;26.50;21.75;;;;;;;;5084202;28;9854;-83
2021/11/20 08:16:31;;;;;;;;;10.00;7.00;;;;;;;;5079633;28;10140;-87
2021/11/20 08:18:59;;;;;;;;;100.25;85.75;;;;;;;;5085454;28;10020;-81
2021/11/20 08:21:27;;;;;;;;;6.25;6.25;;;;;;;;5080723;28;11719;-74
2021/11/20 08:23:55;;;;;;;;;10.50;10.50;;;;;;;;5083753;28;10221;-76
2021/11/20 08:26:25;;;;;;;;;12.50;10.00;;;;;;;;5084395;28;10047;-82
2021/11/20 08:28:54;;;;;;;;;8.00;8.00;;;;;;;;5082082;28;10204;-77
2021/11/20 08:31:23;;;;;;;;;15.00;13.00;;;;;;;;5078845;28;10006;-79
2021/11/20 08:33:51;;;;;;;;;21.25;16.50;;;;;;;;5084529;28;10205;-79
2021/11/20 08:36:18;;;;;;;;;9.75;9.75;;;;;;;;5076948;28;10303;-77
2021/11/20 08:38:48;;;;;;;;;8.50;8.00;;;;;;;;5082395;28;10096;-80
2021/11/20 08:41:15;;;;;;;;;14.50;10.00;;;;;;;;5081418;28;9933;-82
2021/11/20 08:43:43;;;;;;;;;5.50;5.50;;;;;;;;5080386;28;10073;-81
2021/11/20 08:46:11;;;;;;;;;3.00;3.00;;;;;;;;5080522;28;10081;-82
2021/11/20 08:48:39;;;;;;;;;6.00;6.00;;;;;;;;5082743;28;9912;-80
2021/11/20 08:51:09;;;;;;;;;6.00;3.50;;;;;;;;5081925;28;9999;-79
2021/11/20 08:53:37;;;;;;;;;7.25;6.00;;;;;;;;5080697;28;9955;-84
2021/11/20 08:56:05;;;;;;;;;3.00;3.00;;;;;;;;5078595;28;10047;-78
2021/11/20 08:58:34;;;;;;;;;27.00;21.00;;;;;;;;5081991;28;9818;-77
2021/11/20 09:01:06;;;;;;;;;25.75;21.00;;;;;;;;5079823;27;10433;-77
2021/11/20 09:03:37;;;;;;;;;124.00;111.00;;;;;;;;5081947;28;10362;-75
2021/11/20 09:06:12;;;;;;;;;38.50;32.25;;;;;;;;5083279;28;8876;-76
2021/11/20 09:08:43;;;;;;;;;5.50;2.75;;;;;;;;5077471;28;12002;-77
2021/11/20 09:11:15;;;;;;;;;7.75;7.25;;;;;;;;5083305;28;9868;-78
2021/11/20 09:13:47;;;;;;;;;2.25;2.25;;;;;;;;5080885;28;10109;-78
2021/11/20 09:16:19;;;;;;;;;1.00;1.00;;;;;;;;5083652;28;9755;-77
2021/11/20 09:18:48;;;;;;;;;2.00;2.00;;;;;;;;5084688;28;10014;-77
2021/11/20 09:21:17;;;;;;;;;2.50;2.50;;;;;;;;5084771;28;9850;-77
2021/11/20 09:23:45;;;;;;;;;6.75;2.00;;;;;;;;5087615;28;9851;-77
2021/11/20 09:26:13;;;;;;;;;37.25;33.00;;;;;;;;5085388;28;9871;-77
2021/11/20 09:28:41;;;;;;;;;11.75;10.00;;;;;;;;5084131;28;10893;-77
2021/11/20 09:31:09;;;;;;;;;19.75;15.50;;;;;;;;5082218;28;10184;-77
2021/11/20 09:33:37;;;;;;;;;3.00;2.00;;;;;;;;5085331;28;10349;-78
2021/11/20 09:36:07;;;;;;;;;20.00;18.25;;;;;;;;5084458;28;10118;-77
2021/11/20 09:38:35;;;;;;;;;2.25;2.25;;;;;;;;5084668;28;10281;-77
2021/11/20 09:41:05;;;;;;;;;3.25;2.00;;;;;;;;5083248;28;9985;-77
2021/11/20 09:43:36;;;;;;;;;2.25;2.25;;;;;;;;5082404;28;9860;-77
2021/11/20 09:46:06;;;;;;;;;2.50;2.50;;;;;;;;5081759;28;9851;-77
2021/11/20 09:48:35;;;;;;;;;3.00;3.00;;;;;;;;5083965;28;10121;-77
2021/11/20 09:51:08;;;;;;;;;5.00;2.75;;;;;;;;5084895;28;10136;-78
2021/11/20 09:53:35;;;;;;;;;14.00;9.50;;;;;;;;5086549;28;10038;-77
2021/11/20 09:56:07;;;;;;;;;13.50;12.00;;;;;;;;5085757;28;11289;-77
2021/11/20 09:58:37;;;;;;;;;2.50;2.50;;;;;;;;5082902;28;10882;-77
2021/11/20 10:01:21;;;;;;;;;3.00;3.00;;;;;;;;5084600;28;10163;-77
2021/11/20 10:03:52;;;;;;;;;5.00;2.25;;;;;;;;5083538;28;10065;-77
2021/11/20 10:06:29;;;;;;;;;3.00;2.00;;;;;;;;5086182;28;10052;-77
2021/11/20 10:09:09;;;;;;;;;1.50;1.00;;;;;;;;5092448;28;10848;-77
2021/11/20 10:11:39;;;;;;;;;1.75;1.75;;;;;;;;5087060;28;9904;-77
2021/11/20 10:14:11;;;;;;;;;3.00;3.00;;;;;;;;5087957;28;10032;-80
2021/11/20 10:16:48;;;;;;;;;2.75;2.75;;;;;;;;5084491;28;9974;-80
2021/11/20 10:19:21;;;;;;;;;2.00;2.00;;;;;;;;5086803;28;10131;-76
2021/11/20 10:22:02;;;;;;;;;5.00;2.00;;;;;;;;5088581;28;10091;-77
2021/11/20 10:24:43;;;;;;;;;5.00;1.75;;;;;;;;5087478;28;10079;-77
2021/11/20 10:27:20;;;;;;;;;3.00;3.00;;;;;;;;5087786;28;10025;-77
2021/11/20 10:30:01;;;;;;;;;9.00;9.00;;;;;;;;5085133;28;10187;-77
2021/11/20 10:32:34;;;;;;;;;7.25;7.25;;;;;;;;5086825;28;11029;-76
2021/11/20 10:35:07;;;;;;;;;4.50;2.00;;;;;;;;5086748;28;10178;-74
2021/11/20 10:37:41;;;;;;;;;2.00;2.00;;;;;;;;5086556;28;10027;-79
2021/11/20 10:40:17;;;;;;;;;5.25;3.50;;;;;;;;5089377;28;9895;-78
2021/11/20 10:42:50;;;;;;;;;1.75;1.75;;;;;;;;5084528;28;10669;-77
2021/11/20 10:45:22;;;;;;;;;2.00;2.00;;;;;;;;5090155;28;9841;-78
2021/11/20 10:47:56;;;;;;;;;1.75;1.75;;;;;;;;5086663;28;10728;-78
2021/11/20 10:50:35;;;;;;;;;5.75;2.00;;;;;;;;5087344;28;9775;-77
2021/11/20 10:53:29;;;;;;;;;8.75;7.50;;;;;;;;5089060;28;9764;-77
2021/11/20 10:56:20;;;;;;;;;4.25;4.25;;;;;;;;5114991;27;9964;-78
2021/11/20 10:59:17;;;;;;;;;5.00;5.00;;;;;;;;5081576;28;9855;-78
2021/11/20 11:02:16;;;;;;;;;6.00;6.00;;;;;;;;5083295;28;9812;-81
2021/11/20 11:05:03;;;;;;;;;6.00;5.00;;;;;;;;5085043;28;9950;-81
2021/11/20 11:07:34;;;;;;;;;46.25;38.00;;;;;;;;5084403;28;10074;-79
2021/11/20 11:10:07;;;;;;;;;21.00;17.00;;;;;;;;5085874;28;11521;-84
2021/11/20 11:12:41;;;;;;;;;4.00;3.50;;;;;;;;5084197;28;10940;-79
2021/11/20 11:15:20;;;;;;;;;2.50;1.25;;;;;;;;5083197;28;9863;-77
2021/11/20 11:18:14;;;;;;;;;2.00;2.00;;;;;;;;5085895;28;9913;-77
2021/11/20 11:21:22;;;;;;;;;6.00;6.00;;;;;;;;5089685;28;9897;-78
2021/11/20 11:24:00;;;;;;;;;5.25;3.00;;;;;;;;5088756;28;10033;-78
2021/11/20 11:26:31;;;;;;;;;7.00;7.00;;;;;;;;5115317;27;9945;-80
2021/11/20 11:29:01;;;;;;;;;2.50;1.00;;;;;;;;5083791;28;10143;-78
2021/11/20 11:31:32;;;;;;;;;3.00;3.00;;;;;;;;5086733;27;10693;-79
2021/11/20 11:34:02;;;;;;;;;5.50;3.00;;;;;;;;5101621;28;9874;-79
2021/11/20 11:36:37;;;;;;;;;5.00;5.00;;;;;;;;5094356;28;9868;-79
2021/11/20 11:39:36;;;;;;;;;7.00;6.00;;;;;;;;5086754;28;9939;-79
2021/11/20 11:42:32;;;;;;;;;6.75;5.00;;;;;;;;5097626;28;9948;-76
2021/11/20 11:45:04;;;;;;;;;5.25;5.25;;;;;;;;5086194;28;9958;-79
2021/11/20 11:47:47;;;;;;;;;2.00;2.00;;;;;;;;5080061;28;9926;-78
2021/11/20 11:50:49;;;;;;;;;4.75;2.00;;;;;;;;5084037;28;9737;-79
2021/11/20 11:53:35;;;;;;;;;4.75;2.00;;;;;;;;5072036;28;9916;-82
2021/11/20 11:56:04;;;;;;;;;5.25;3.00;;;;;;;;5083662;28;9776;-79
2021/11/20 11:59:03;;;;;;;;;4.50;3.00;;;;;;;;5081907;28;10704;-78
2021/11/20 12:01:48;;;;;;;;;2.00;2.00;;;;;;;;5078949;28;9760;-83
2021/11/20 12:04:19;;;;;;;;;5.50;5.50;;;;;;;;5080649;28;9720;-81
2021/11/20 12:07:14;;;;;;;;;5.00;2.25;;;;;;;;5080780;28;9780;-77
2021/11/20 12:09:47;;;;;;;;;3.00;1.00;;;;;;;;5085352;28;11244;-78
2021/11/20 12:12:27;;;;;;;;;6.00;6.00;;;;;;;;5082107;28;9775;-76
2021/11/20 12:15:08;;;;;;;;;7.50;6.50;;;;;;;;5083458;28;9883;-76
2021/11/20 12:18:04;;;;;;;;;3.00;3.00;;;;;;;;5080924;28;10644;-81
2021/11/20 12:20:44;;;;;;;;;2.75;2.75;;;;;;;;5082077;28;9762;-81
2021/11/20 12:23:25;;;;;;;;;3.00;3.00;;;;;;;;5084275;28;9640;-84
2021/11/20 12:25:57;;;;;;;;;5.50;5.50;;;;;;;;5080187;28;9844;-82
2021/11/20 12:28:35;;;;;;;;;3.50;3.50;;;;;;;;5081352;28;10726;-83
2021/11/20 12:31:38;;;;;;;;;1.75;1.75;;;;;;;;5085719;28;10016;-85
2021/11/20 12:34:26;;;;;;;;;1.75;1.75;;;;;;;;5081250;28;9961;-82
2021/11/20 12:37:22;;;;;;;;;2.00;2.00;;;;;;;;5082615;28;9781;-83
2021/11/20 12:40:13;;;;;;;;;2.75;2.75;;;;;;;;5085586;27;10100;-77
2021/11/20 12:43:06;;;;;;;;;3.00;3.00;;;;;;;;5077749;28;9807;-82
2021/11/20 12:46:06;;;;;;;;;3.00;3.00;;;;;;;;5078870;28;9929;-82
2021/11/20 12:48:44;;;;;;;;;3.00;3.00;;;;;;;;5081373;28;9942;-82
2021/11/20 12:51:33;;;;;;;;;2.00;2.00;;;;;;;;5110320;27;9884;-81
2021/11/20 12:54:07;;;;;;;;;6.50;5.25;;;;;;;;5081766;28;9879;-80
2021/11/20 12:56:40;;;;;;;;;3.00;3.00;;;;;;;;5080722;28;9766;-82
2021/11/20 12:59:18;;;;;;;;;5.00;5.00;;;;;;;;5083480;28;9890;-80
2021/11/20 13:01:49;;;;;;;;;4.25;3.25;;;;;;;;5082431;28;9971;-80
2021/11/20 13:04:21;;;;;;;;;2.00;2.00;;;;;;;;5082524;28;9976;-79
2021/11/20 13:06:54;;;;;;;;;3.00;3.00;;;;;;;;5083261;28;9687;-81
2021/11/20 13:09:34;;;;;;;;;2.00;2.00;;;;;;;;5084374;28;9846;-78
2021/11/20 13:12:07;;;;;;;;;6.25;4.50;;;;;;;;5083775;28;9703;-80
2021/11/20 13:15:14;;;;;;;;;6.50;4.75;;;;;;;;5082953;28;9778;-81
2021/11/20 13:17:53;;;;;;;;;2.75;2.75;;;;;;;;4987727;28;9803;-84
2021/11/20 13:20:23;;;;;;;;;2.50;2.50;;;;;;;;5081309;28;9651;-85
2021/11/20 13:23:04;;;;;;;;;5.25;5.25;;;;;;;;5080346;28;9717;-85
2021/11/20 13:25:33;;;;;;;;;2.00;2.00;;;;;;;;5086107;28;9757;-83
2021/11/20 13:28:03;;;;;;;;;3.00;3.00;;;;;;;;5082397;28;9718;-84
2021/11/20 13:30:36;;;;;;;;;3.75;3.75;;;;;;;;5080998;28;9505;-85
2021/11/20 13:33:06;;;;;;;;;5.75;5.75;;;;;;;;5084228;28;9623;-86
2021/11/20 13:35:37;;;;;;;;;2.00;2.00;;;;;;;;5082471;28;9889;-85
2021/11/20 13:38:06;;;;;;;;;3.00;3.00;;;;;;;;5081697;28;9816;-84
2021/11/20 13:40:36;;;;;;;;;2.00;2.00;;;;;;;;5081136;28;9859;-85
2021/11/20 13:43:11;;;;;;;;;1.50;1.50;;;;;;;;5083249;28;9718;-85
2021/11/20 13:45:39;;;;;;;;;2.25;2.25;;;;;;;;5085805;28;9718;-85
2021/11/20 13:48:07;;;;;;;;;1.50;1.50;;;;;;;;5083229;28;9746;-84
2021/11/20 13:50:40;;;;;;;;;5.25;5.00;;;;;;;;5081616;28;9857;-83
2021/11/20 13:53:14;;;;;;;;;2.75;2.75;;;;;;;;5081299;28;10007;-80
2021/11/20 13:55:45;;;;;;;;;4.00;4.00;;;;;;;;5083875;28;9897;-83
2021/11/20 13:58:22;;;;;;;;;4.50;3.00;;;;;;;;5080830;28;9888;-82
2021/11/20 14:00:51;;;;;;;;;2.75;2.75;;;;;;;;5081419;28;10703;-81
2021/11/20 14:03:18;;;;;;;;;5.50;5.50;;;;;;;;5082499;28;9767;-80
2021/11/20 14:05:46;;;;;;;;;5.75;3.50;;;;;;;;5078553;28;9986;-81
2021/11/20 14:08:15;;;;;;;;;3.00;3.00;;;;;;;;5083640;28;10184;-82
2021/11/20 14:10:45;;;;;;;;;7.50;6.00;;;;;;;;5085164;28;9826;-81
2021/11/20 14:13:19;;;;;;;;;6.00;3.50;;;;;;;;5079462;28;10022;-84
2021/11/20 14:15:51;;;;;;;;;6.00;6.00;;;;;;;;5084355;28;10075;-83
2021/11/20 14:18:22;;;;;;;;;6.50;6.25;;;;;;;;5080568;28;9888;-85
2021/11/20 14:20:52;;;;;;;;;3.00;3.00;;;;;;;;5082270;28;9871;-83
2021/11/20 14:23:22;;;;;;;;;4.75;4.75;;;;;;;;5079664;28;10519;-83
2021/11/20 14:25:51;;;;;;;;;3.25;3.25;;;;;;;;5083852;28;9896;-82
2021/11/20 14:28:19;;;;;;;;;3.00;3.00;;;;;;;;5081847;28;11396;-82
2021/11/20 14:30:50;;;;;;;;;6.00;5.00;;;;;;;;5085745;27;9807;-83
2021/11/20 14:33:31;;;;;;;;;;;;;;;;;;;;;
2021/11/20 14:36:01;;;;;;;;;5.25;5.25;;;;;;;;5078564;28;9774;-87
2021/11/20 14:38:32;;;;;;;;;7.50;6.00;;;;;;;;5082605;28;9776;-83
2021/11/20 14:41:01;;;;;;;;;5.75;5.00;;;;;;;;5086593;28;10000;-86
2021/11/20 14:43:30;;;;;;;;;6.00;6.00;;;;;;;;5083179;28;9966;-85
2021/11/20 14:46:00;;;;;;;;;7.75;3.25;;;;;;;;5080370;28;9864;-85
2021/11/20 14:48:29;;;;;;;;;3.75;3.75;;;;;;;;5082824;28;9886;-85
2021/11/20 14:50:59;;;;;;;;;2.00;2.00;;;;;;;;5086186;28;10078;-82
2021/11/20 14:53:29;;;;;;;;;2.25;1.00;;;;;;;;5091984;28;10046;-85
2021/11/20 14:55:59;;;;;;;;;5.00;5.00;;;;;;;;5086971;28;9942;-83
2021/11/20 14:58:27;;;;;;;;;7.00;3.00;;;;;;;;5082242;28;10075;-80
2021/11/20 15:00:57;;;;;;;;;2.00;2.00;;;;;;;;5086631;28;10139;-81
2021/11/20 15:03:29;;;;;;;;;2.00;2.00;;;;;;;;5085685;28;10151;-84
2021/11/20 15:06:03;;;;;;;;;2.00;2.00;;;;;;;;5094547;28;10174;-79
2021/11/20 15:08:31;;;;;;;;;2.25;2.25;;;;;;;;5089330;28;10210;-80
2021/11/20 15:10:59;;;;;;;;;2.00;2.00;;;;;;;;5085466;28;10228;-77
2021/11/20 15:13:27;;;;;;;;;5.00;5.00;;;;;;;;5086305;28;10092;-79
2021/11/20 15:15:54;;;;;;;;;5.00;2.50;;;;;;;;5083742;28;10348;-79
2021/11/20 15:18:22;;;;;;;;;2.25;2.25;;;;;;;;5083276;28;10155;-80